Time;durP1;ratioP1;P1;durP2;ratioP2;P2;SDS_P1;SDS_P2;PMS_P1;PMS_P2;Temp;Humidity;BMP_temperature;BMP_pressure;BME280_temperature;BME280_humidity;BME280_pressure;Samples;Min_cycle;Max_cycle;Signal;HPM_P1;HPM_P2
2022/08/26 00:00:10;;;;;;;7.30;6.00;;;;;;;20.14;85.31;100513.50;694502;28;1217;-40
2022/08/26 00:00:33;;;;;;;6.97;5.72;;;;;;;20.12;85.46;100517.16;693887;28;1107;-42
2022/08/26 00:00:54;;;;;;;7.65;5.57;;;;;;;20.10;85.74;100513.75;691511;28;4480;-40
2022/08/26 00:01:15;;;;;;;7.37;5.50;;;;;;;20.12;85.93;100522.47;690841;28;979;-41
2022/08/26 00:01:36;;;;;;;6.82;5.68;;;;;;;20.13;85.95;100513.59;690996;28;1128;-40
2022/08/26 00:01:56;;;;;;;7.50;5.70;;;;;;;20.12;85.70;100518.06;689371;28;1104;-41
2022/08/26 00:02:16;;;;;;;6.43;5.50;;;;;;;20.13;85.93;100511.81;691491;28;1113;-41
2022/08/26 00:02:37;;;;;;;6.47;5.60;;;;;;;20.15;85.88;100506.44;689230;28;1092;-40
2022/08/26 00:02:58;;;;;;;7.50;5.90;;;;;;;20.12;86.26;100506.56;691539;28;991;-42
2022/08/26 00:03:18;;;;;;;7.00;5.80;;;;;;;20.10;86.21;100503.13;691371;28;935;-40
2022/08/26 00:03:39;;;;;;;6.93;5.77;;;;;;;20.08;86.18;100506.72;691822;28;1179;-40
2022/08/26 00:04:00;;;;;;;7.53;5.60;;;;;;;20.06;86.19;100511.25;691440;28;4297;-40
2022/08/26 00:04:23;;;;;;;7.47;5.60;;;;;;;20.04;85.96;100507.78;691490;28;1284;-41
2022/08/26 00:04:44;;;;;;;7.85;5.95;;;;;;;20.06;85.80;100513.00;692807;28;1051;-40
2022/08/26 00:05:05;;;;;;;7.57;5.90;;;;;;;20.06;86.14;100505.94;694155;28;1083;-46
2022/08/26 00:05:26;;;;;;;6.35;5.63;;;;;;;20.07;85.54;100514.75;692682;28;984;-40
2022/08/26 00:05:47;;;;;;;7.28;5.60;;;;;;;20.06;85.80;100516.56;694418;28;1273;-40
2022/08/26 00:06:07;;;;;;;8.80;6.00;;;;;;;20.07;85.45;100514.75;693618;28;1241;-43
2022/08/26 00:06:30;;;;;;;7.20;5.90;;;;;;;20.07;85.58;100514.75;694176;28;1289;-41
2022/08/26 00:06:50;;;;;;;6.75;5.82;;;;;;;20.05;86.45;100509.50;694405;28;4485;-41
2022/08/26 00:07:11;;;;;;;7.95;5.80;;;;;;;20.02;86.97;100516.75;693445;28;1061;-42
2022/08/26 00:07:31;;;;;;;7.87;5.80;;;;;;;19.99;86.89;100515.13;692776;28;1127;-41
2022/08/26 00:07:52;;;;;;;7.10;5.60;;;;;;;19.94;87.41;100508.28;690748;28;1404;-44
2022/08/26 00:08:14;;;;;;;8.02;5.70;;;;;;;19.93;86.94;100510.06;691063;28;1102;-41
2022/08/26 00:08:34;;;;;;;6.60;5.43;;;;;;;19.94;87.29;100509.16;691447;28;1126;-41
2022/08/26 00:08:55;;;;;;;6.82;5.80;;;;;;;19.92;87.52;100505.69;691712;28;1151;-41
2022/08/26 00:09:16;;;;;;;7.50;5.80;;;;;;;19.88;87.52;100512.06;694581;28;970;-40
2022/08/26 00:09:36;;;;;;;7.85;5.80;;;;;;;19.88;87.15;100512.06;694099;28;1158;-43
2022/08/26 00:09:57;;;;;;;7.07;5.72;;;;;;;19.89;87.32;100511.16;695746;28;4550;-41
2022/08/26 00:10:19;;;;;;;8.23;5.93;;;;;;;19.91;87.41;100506.66;697191;28;936;-41
2022/08/26 00:10:50;;;;;;;7.70;5.47;;;;;;;19.86;87.81;100506.00;696985;28;1071;-40
2022/08/26 00:11:11;;;;;;;7.82;6.05;;;;;;;19.82;88.24;100512.38;696519;28;1077;-42
2022/08/26 00:11:32;;;;;;;7.25;5.75;;;;;;;19.79;88.35;100508.03;697053;28;1413;-42
2022/08/26 00:11:53;;;;;;;7.73;5.80;;;;;;;19.78;88.43;100505.44;697420;28;1194;-41
2022/08/26 00:12:14;;;;;;;7.53;5.68;;;;;;;19.80;87.50;100511.56;696653;28;1078;-41
2022/08/26 00:12:34;;;;;;;7.00;5.77;;;;;;;19.84;86.89;100514.03;696567;28;1399;-42
2022/08/26 00:12:54;;;;;;;7.03;5.78;;;;;;;19.86;87.10;100508.66;694304;28;4587;-42
2022/08/26 00:13:15;;;;;;;6.30;5.50;;;;;;;19.87;86.98;100510.38;693711;28;1626;-41
2022/08/26 00:13:36;;;;;;;7.70;5.65;;;;;;;19.88;87.02;100510.31;694410;28;1211;-41
2022/08/26 00:13:57;;;;;;;6.50;5.55;;;;;;;19.90;87.08;100512.88;693786;28;1122;-42
2022/08/26 00:14:18;;;;;;;7.65;5.85;;;;;;;19.90;87.91;100508.44;694605;28;1129;-41
2022/08/26 00:14:38;;;;;;;7.70;5.80;;;;;;;19.87;88.09;100513.03;693908;28;1213;-41
2022/08/26 00:14:59;;;;;;;7.80;5.90;;;;;;;19.83;88.51;100506.16;693472;28;1079;-42
2022/08/26 00:15:20;;;;;;;7.72;5.82;;;;;;;19.82;88.24;100501.75;693557;28;974;-41
2022/08/26 00:15:41;;;;;;;6.60;5.60;;;;;;;19.80;88.26;100504.50;694089;28;1074;-41
2022/08/26 00:16:03;;;;;;;7.15;5.93;;;;;;;19.80;88.35;100506.25;692762;28;4299;-42
2022/08/26 00:16:26;;;;;;;6.75;5.70;;;;;;;19.78;88.09;100508.09;693534;28;3779;-42
2022/08/26 00:16:46;;;;;;;7.18;5.75;;;;;;;19.80;87.98;100501.84;694310;28;1183;-41
2022/08/26 00:17:06;;;;;;;7.60;6.10;;;;;;;19.79;87.92;100501.88;693370;28;1317;-41
2022/08/26 00:17:27;;;;;;;7.30;5.83;;;;;;;19.79;87.47;100507.19;694145;28;1295;-41
2022/08/26 00:17:49;;;;;;;8.23;5.88;;;;;;;19.81;87.27;100508.84;693092;28;1179;-41
2022/08/26 00:18:09;;;;;;;7.05;5.40;;;;;;;19.81;87.67;100508.00;693005;28;1922;-42
2022/08/26 00:18:30;;;;;;;6.73;5.67;;;;;;;19.80;87.88;100511.56;694314;28;977;-42
2022/08/26 00:18:51;;;;;;;7.43;5.75;;;;;;;19.79;87.74;100515.13;692644;28;4481;-41
2022/08/26 00:19:12;;;;;;;7.43;6.10;;;;;;;19.74;87.60;100508.25;694866;28;900;-41
2022/08/26 00:19:32;;;;;;;8.63;5.83;;;;;;;19.73;87.22;100511.81;694350;28;1102;-42
2022/08/26 00:19:53;;;;;;;7.43;5.87;;;;;;;19.75;87.27;100509.09;694567;28;1091;-40
2022/08/26 00:20:16;;;;;;;6.97;5.85;;;;;;;19.71;88.05;100518.97;693684;28;1177;-40
2022/08/26 00:20:38;;;;;;;7.47;5.80;;;;;;;19.70;87.48;100511.09;692632;28;1075;-41
2022/08/26 00:20:58;;;;;;;7.32;5.63;;;;;;;19.73;87.30;100519.78;692870;28;1051;-41
2022/08/26 00:21:19;;;;;;;8.18;6.05;;;;;;;19.73;87.57;100522.44;694087;28;1115;-41
2022/08/26 00:21:39;;;;;;;7.93;6.33;;;;;;;19.75;87.02;100522.38;694189;28;1269;-41
2022/08/26 00:22:00;;;;;;;7.30;5.77;;;;;;;19.75;87.01;100517.06;693181;28;4436;-41
2022/08/26 00:22:21;;;;;;;8.00;5.97;;;;;;;19.77;87.09;100523.16;694064;28;904;-42
2022/08/26 00:22:41;;;;;;;6.97;6.00;;;;;;;19.76;87.64;100525.88;694140;28;1304;-41
2022/08/26 00:23:02;;;;;;;7.60;6.00;;;;;;;19.76;87.17;100523.22;694376;28;1111;-41
2022/08/26 00:23:23;;;;;;;7.43;5.82;;;;;;;19.76;87.82;100529.41;694762;28;952;-42
2022/08/26 00:23:44;;;;;;;7.23;5.90;;;;;;;19.73;87.95;100522.44;694596;28;900;-41
2022/08/26 00:24:04;;;;;;;7.35;5.95;;;;;;;19.74;87.21;100524.16;694461;28;1074;-42
2022/08/26 00:24:25;;;;;;;7.50;5.80;;;;;;;19.79;87.15;100525.75;695607;28;999;-42
2022/08/26 00:24:45;;;;;;;7.63;6.00;;;;;;;19.81;87.08;100524.75;694186;28;1138;-42
2022/08/26 00:25:08;;;;;;;8.20;5.73;;;;;;;19.85;86.97;100526.34;693599;28;4415;-41
2022/08/26 00:25:28;;;;;;;7.65;5.57;;;;;;;19.81;87.99;100526.56;694344;28;1095;-41
2022/08/26 00:25:50;;;;;;;8.40;5.93;;;;;;;19.77;88.32;100524.94;693594;28;1132;-39
2022/08/26 00:26:11;;;;;;;6.85;6.10;;;;;;;19.76;88.26;100525.88;693876;28;1071;-40
2022/08/26 00:26:33;;;;;;;7.03;5.93;;;;;;;19.75;88.35;100525.00;693542;28;1031;-41
2022/08/26 00:26:53;;;;;;;7.18;6.03;;;;;;;19.73;88.40;100529.53;695216;28;1158;-41
2022/08/26 00:27:14;;;;;;;7.67;6.10;;;;;;;19.74;88.28;100529.47;695354;28;1048;-40
2022/08/26 00:27:35;;;;;;;7.18;5.65;;;;;;;19.76;88.02;100532.03;694806;28;1100;-42
2022/08/26 00:27:56;;;;;;;7.68;5.78;;;;;;;19.78;88.44;100530.16;689008;28;4722;-43
2022/08/26 00:28:17;;;;;;;6.80;5.82;;;;;;;19.77;88.85;100528.47;691682;28;1262;-41
2022/08/26 00:28:37;;;;;;;6.60;5.90;;;;;;;19.76;88.97;100528.50;687912;28;1361;-43
2022/08/26 00:28:57;;;;;;;7.37;5.87;;;;;;;19.76;88.83;100523.22;688840;28;1096;-39
2022/08/26 00:29:18;;;;;;;7.70;5.77;;;;;;;19.78;89.16;100518.72;692502;28;1057;-40
2022/08/26 00:29:39;;;;;;;7.20;6.20;;;;;;;19.80;88.90;100519.53;691309;28;1052;-39
2022/08/26 00:30:00;;;;;;;6.50;5.80;;;;;;;19.82;87.59;100526.47;693414;28;1302;-42
2022/08/26 00:30:24;;;;;;;6.95;5.80;;;;;;;19.85;87.78;100525.50;692076;28;1215;-40
2022/08/26 00:30:47;;;;;;;7.40;6.10;;;;;;;19.87;87.91;100528.94;692975;28;1135;-40
2022/08/26 00:31:08;;;;;;;8.90;6.00;;;;;;;19.87;87.33;100531.59;693022;28;4838;-41
2022/08/26 00:31:28;;;;;;;8.80;6.07;;;;;;;19.85;87.31;100533.44;694487;28;1063;-41
2022/08/26 00:31:49;;;;;;;8.68;6.10;;;;;;;19.80;87.73;100532.78;692922;28;1277;-42
2022/08/26 00:32:11;;;;;;;7.35;5.60;;;;;;;19.77;87.83;100528.47;694329;28;1057;-41
2022/08/26 00:32:32;;;;;;;6.82;5.70;;;;;;;19.76;87.83;100531.16;694215;28;1035;-44
2022/08/26 00:32:52;;;;;;;7.43;5.47;;;;;;;19.77;87.01;100527.59;693816;28;1225;-40
2022/08/26 00:33:14;;;;;;;8.43;5.88;;;;;;;19.70;88.24;100527.00;694870;28;1064;-40
2022/08/26 00:33:34;;;;;;;9.15;5.88;;;;;;;19.63;89.00;100531.72;694106;28;1094;-41
2022/08/26 00:33:55;;;;;;;7.35;6.03;;;;;;;19.54;89.25;100524.19;692894;28;4451;-45
2022/08/26 00:34:15;;;;;;;7.43;6.07;;;;;;;19.50;89.47;100525.25;692518;28;1096;-45
2022/08/26 00:34:36;;;;;;;7.60;6.30;;;;;;;19.47;89.67;100528.06;691201;28;1119;-41
2022/08/26 00:34:56;;;;;;;7.90;5.80;;;;;;;19.49;88.55;100534.13;691262;28;1055;-40
2022/08/26 00:35:17;;;;;;;7.28;6.07;;;;;;;19.50;89.36;100530.56;688595;28;1151;-40
2022/08/26 00:35:38;;;;;;;8.77;5.88;;;;;;;19.49;90.11;100528.81;688409;28;967;-40
2022/08/26 00:35:58;;;;;;;7.73;5.60;;;;;;;19.49;90.08;100527.03;688895;28;1243;-41
2022/08/26 00:36:18;;;;;;;6.90;5.90;;;;;;;19.50;89.92;100530.56;690943;28;1227;-42
2022/08/26 00:36:39;;;;;;;6.73;5.97;;;;;;;19.50;90.30;100530.56;691442;28;1183;-39
2022/08/26 00:36:59;;;;;;;7.10;5.90;;;;;;;19.51;90.09;100527.00;690242;28;4320;-41
2022/08/26 00:37:20;;;;;;;7.27;5.83;;;;;;;19.53;89.54;100525.97;694973;28;1315;-41
2022/08/26 00:37:41;;;;;;;9.73;5.70;;;;;;;19.57;89.28;100532.84;694273;28;1203;-41
2022/08/26 00:38:02;;;;;;;8.45;5.80;;;;;;;19.57;89.61;100532.84;694004;28;1987;-42
2022/08/26 00:38:23;;;;;;;7.13;6.00;;;;;;;19.56;89.73;100535.56;694028;28;936;-40
2022/08/26 00:38:44;;;;;;;7.20;6.28;;;;;;;19.55;89.49;100539.19;694120;28;1348;-40
2022/08/26 00:39:06;;;;;;;8.18;6.20;;;;;;;19.54;89.40;100534.81;692790;28;1175;-40
2022/08/26 00:39:26;;;;;;;8.25;5.97;;;;;;;19.55;88.96;100540.03;694750;28;1083;-40
2022/08/26 00:39:47;;;;;;;8.43;6.13;;;;;;;19.56;88.72;100530.28;693828;28;4528;-40
2022/08/26 00:40:13;;;;;;;7.35;6.22;;;;;;;19.57;88.30;100538.16;694060;28;1116;-43
2022/08/26 00:40:38;;;;;;;8.35;6.10;;;;;;;19.53;89.83;100531.25;693125;28;1203;-41
2022/08/26 00:40:59;;;;;;;7.05;5.80;;;;;;;19.52;90.11;100529.56;692430;28;1120;-42
2022/08/26 00:41:19;;;;;;;8.70;6.05;;;;;;;19.51;89.93;100527.84;694328;28;1103;-42
2022/08/26 00:41:40;;;;;;;8.73;6.00;;;;;;;19.54;89.09;100526.84;693690;28;1254;-41
2022/08/26 00:42:00;;;;;;;6.95;5.70;;;;;;;19.57;89.19;100535.50;690272;28;1504;-41
2022/08/26 00:42:20;;;;;;;7.40;5.90;;;;;;;19.56;90.07;100538.22;691696;28;1254;-41
2022/08/26 00:42:43;;;;;;;8.07;5.97;;;;;;;19.52;89.74;100536.63;691106;28;1211;-41
2022/08/26 00:43:05;;;;;;;7.60;5.57;;;;;;;19.53;89.03;100543.66;694473;28;4458;-40
2022/08/26 00:43:26;;;;;;;7.85;5.90;;;;;;;19.55;88.92;100544.47;695328;28;1144;-40
2022/08/26 00:43:46;;;;;;;7.50;6.18;;;;;;;19.56;88.90;100540.88;692129;28;1138;-43
2022/08/26 00:44:09;;;;;;;7.23;6.37;;;;;;;19.55;89.83;100545.34;694093;28;1147;-43
2022/08/26 00:44:30;;;;;;;7.43;6.22;;;;;;;19.54;90.04;100548.06;694259;28;1056;-41
2022/08/26 00:44:50;;;;;;;7.13;6.20;;;;;;;19.52;90.02;100542.81;694198;28;1099;-40
2022/08/26 00:45:11;;;;;;;7.17;6.23;;;;;;;19.55;88.62;100544.47;694153;28;1142;-41
2022/08/26 00:45:40;;;;;;;7.20;5.88;;;;;;;19.58;88.92;100549.66;693773;28;1394;-41
2022/08/26 00:46:07;;;;;;;7.07;6.13;;;;;;;19.56;90.09;100540.88;694328;28;4332;-41
2022/08/26 00:46:32;;;;;;;9.32;6.10;;;;;;;19.51;90.10;100543.75;695601;28;1589;-40
2022/08/26 00:46:58;;;;;;;8.23;6.20;;;;;;;19.52;90.30;100544.59;696531;28;1154;-41
2022/08/26 00:47:30;;;;;;;7.60;6.03;;;;;;;19.55;89.54;100542.69;697119;28;1234;-41
2022/08/26 00:48:02;;;;;;;8.02;6.10;;;;;;;19.56;89.76;100543.53;695949;28;1091;-40
2022/08/26 00:48:26;;;;;;;7.68;6.00;;;;;;;19.54;89.23;100537.44;693142;28;1606;-41
2022/08/26 00:48:51;;;;;;;6.85;5.95;;;;;;;19.52;90.07;100544.59;693218;28;4566;-41
2022/08/26 00:49:15;;;;;;;7.80;6.05;;;;;;;19.46;90.41;100544.88;693272;28;1043;-41
2022/08/26 00:49:39;;;;;;;6.93;5.88;;;;;;;19.47;90.51;100546.59;693983;28;1166;-42
2022/08/26 00:50:03;;;;;;;8.23;6.30;;;;;;;19.47;90.53;100541.31;691539;28;1083;-41
2022/08/26 00:50:28;;;;;;;7.60;5.90;;;;;;;19.51;90.46;100542.91;694606;28;1214;-40
2022/08/26 00:50:55;;;;;;;7.90;6.03;;;;;;;19.48;89.88;100540.34;694665;28;1075;-40
2022/08/26 00:51:18;;;;;;;8.80;5.90;;;;;;;19.47;90.60;100547.47;691966;28;1234;-41
2022/08/26 00:51:44;;;;;;;8.90;5.85;;;;;;;19.46;90.36;100543.06;692861;28;1131;-40
2022/08/26 00:52:10;;;;;;;7.45;6.03;;;;;;;19.48;90.10;100543.00;692318;28;4325;-41
2022/08/26 00:52:30;;;;;;;7.38;6.18;;;;;;;19.48;90.11;100549.19;692439;28;1472;-40
2022/08/26 00:52:52;;;;;;;8.02;6.22;;;;;;;19.45;91.20;100551.94;691599;28;815;-40
2022/08/26 00:53:22;;;;;;;8.05;6.47;;;;;;;19.46;90.89;100544.88;691461;28;1069;-41
2022/08/26 00:53:48;;;;;;;7.35;6.00;;;;;;;19.43;91.35;100552.97;691531;28;955;-42
2022/08/26 00:54:10;;;;;;;7.53;6.00;;;;;;;19.40;91.58;100556.59;691346;28;1040;-39
2022/08/26 00:54:39;;;;;;;7.85;6.03;;;;;;;19.39;90.74;100553.06;690739;28;985;-40
2022/08/26 00:55:06;;;;;;;8.40;6.05;;;;;;;19.42;90.59;100556.53;690284;28;4531;-42
2022/08/26 00:55:33;;;;;;;8.02;6.20;;;;;;;19.43;90.05;100545.03;691236;28;1271;-43
2022/08/26 00:56:02;;;;;;;8.30;6.03;;;;;;;19.38;91.35;100556.69;691279;28;1015;-40
2022/08/26 00:56:35;;;;;;;8.45;6.65;;;;;;;19.43;89.87;100556.47;688211;28;1016;-42
2022/08/26 00:57:03;;;;;;;7.43;6.40;;;;;;;19.40;91.27;100551.31;692818;28;1011;-44
2022/08/26 00:57:24;;;;;;;8.48;6.20;;;;;;;19.37;91.19;100552.31;691238;28;1123;-40
2022/08/26 00:57:47;;;;;;;8.30;6.33;;;;;;;19.38;90.51;100554.03;690638;28;977;-41
2022/08/26 00:58:08;;;;;;;7.95;6.32;;;;;;;19.45;89.77;100564.34;690896;28;4895;-43
2022/08/26 00:58:31;;;;;;;7.40;6.10;;;;;;;19.42;90.08;100549.44;693872;28;1172;-41
2022/08/26 00:58:55;;;;;;;7.90;6.28;;;;;;;19.39;90.93;100557.53;693377;28;1280;-45
2022/08/26 00:59:16;;;;;;;7.72;6.05;;;;;;;19.35;90.59;100554.13;694354;28;971;-44
2022/08/26 00:59:37;;;;;;;7.90;6.03;;;;;;;19.36;90.08;100553.22;695172;28;946;-40
2022/08/26 01:00:00;;;;;;;7.73;6.13;;;;;;;19.38;90.19;100553.16;693540;28;1234;-40
2022/08/26 01:00:25;;;;;;;8.20;6.20;;;;;;;19.37;91.32;100557.59;694515;28;1075;-41
2022/08/26 01:00:46;;;;;;;8.77;6.35;;;;;;;19.43;89.67;100555.63;692448;28;4658;-41
2022/08/26 01:01:08;;;;;;;8.77;6.53;;;;;;;19.44;89.67;100562.63;694316;28;1060;-44
2022/08/26 01:01:28;;;;;;;8.20;6.00;;;;;;;19.37;91.33;100552.31;693379;28;907;-40
2022/08/26 01:01:49;;;;;;;7.07;5.97;;;;;;;19.33;91.63;100556.00;694155;28;1030;-41
2022/08/26 01:02:10;;;;;;;7.30;6.00;;;;;;;19.31;91.76;100565.78;690141;28;1123;-44
2022/08/26 01:02:30;;;;;;;7.95;6.38;;;;;;;19.26;92.16;100559.84;691526;28;1402;-40
2022/08/26 01:02:53;;;;;;;8.40;6.60;;;;;;;19.19;92.56;100553.94;691368;28;1019;-41
2022/08/26 01:03:18;;;;;;;6.90;6.10;;;;;;;19.27;90.60;100561.56;691547;28;959;-41
2022/08/26 01:03:40;;;;;;;8.10;6.30;;;;;;;19.29;91.13;100554.41;691272;28;1108;-39
2022/08/26 01:04:01;;;;;;;8.18;6.57;;;;;;;19.30;91.16;100564.09;692676;28;4292;-42
2022/08/26 01:04:22;;;;;;;7.55;6.55;;;;;;;19.29;91.95;100553.56;693613;28;1111;-41
2022/08/26 01:04:43;;;;;;;7.43;6.32;;;;;;;19.27;92.23;100556.25;692768;28;1337;-41
2022/08/26 01:05:04;;;;;;;8.13;6.65;;;;;;;19.27;92.54;100558.06;695194;28;1055;-40
2022/08/26 01:05:25;;;;;;;8.63;6.57;;;;;;;19.24;92.76;100553.75;694759;28;1183;-40
2022/08/26 01:05:45;;;;;;;7.80;6.40;;;;;;;19.21;91.60;100557.38;694341;28;1259;-40
2022/08/26 01:06:07;;;;;;;7.90;6.20;;;;;;;19.25;91.28;100558.13;693160;28;1317;-40
2022/08/26 01:06:28;;;;;;;8.32;6.32;;;;;;;19.24;92.18;100556.41;693905;28;1369;-41
2022/08/26 01:06:52;;;;;;;8.18;6.50;;;;;;;19.23;91.87;100558.19;692626;28;4852;-40
2022/08/26 01:07:12;;;;;;;8.23;6.55;;;;;;;19.29;91.36;100561.53;695040;28;1088;-39
2022/08/26 01:07:33;;;;;;;7.73;6.03;;;;;;;19.27;92.39;100556.25;692389;28;1174;-41
2022/08/26 01:07:54;;;;;;;8.35;6.50;;;;;;;19.27;93.03;100556.25;689357;28;1072;-40
2022/08/26 01:08:14;;;;;;;9.02;6.53;;;;;;;19.32;91.60;100556.94;689106;28;1149;-41
2022/08/26 01:08:35;;;;;;;8.60;6.40;;;;;;;19.34;91.19;100552.44;691740;28;1143;-40
2022/08/26 01:08:55;;;;;;;7.63;6.53;;;;;;;19.31;91.44;100557.00;688042;28;1521;-42
2022/08/26 01:09:17;;;;;;;7.83;6.27;;;;;;;19.26;92.56;100559.84;688796;28;1016;-41
2022/08/26 01:09:37;;;;;;;8.10;6.40;;;;;;;19.23;92.69;100550.25;692643;28;1137;-43
2022/08/26 01:10:00;;;;;;;8.30;6.63;;;;;;;19.23;92.24;100552.00;693697;28;4480;-41
2022/08/26 01:10:25;;;;;;;7.50;6.32;;;;;;;19.27;91.23;100558.91;694282;28;1012;-39
2022/08/26 01:10:45;;;;;;;7.45;6.50;;;;;;;19.28;91.90;100555.34;693950;28;2213;-42
2022/08/26 01:11:07;;;;;;;8.73;6.65;;;;;;;19.26;92.77;100553.69;695147;28;1123;-40
2022/08/26 01:11:28;;;;;;;8.40;6.88;;;;;;;19.19;93.60;100558.38;694567;28;1243;-41
2022/08/26 01:11:52;;;;;;;8.73;6.83;;;;;;;19.17;93.82;100554.94;694864;28;1039;-40
2022/08/26 01:12:12;;;;;;;9.07;6.82;;;;;;;19.16;92.99;100558.50;694809;28;1075;-41
2022/08/26 01:12:39;;;;;;;7.40;6.15;;;;;;;19.19;91.77;100561.03;693099;28;3799;-40
2022/08/26 01:13:04;;;;;;;8.02;6.28;;;;;;;19.21;91.93;100553.88;693543;28;4457;-42
2022/08/26 01:13:26;;;;;;;7.97;6.70;;;;;;;19.22;91.80;100556.47;694718;28;1188;-40
2022/08/26 01:13:48;;;;;;;8.50;7.00;;;;;;;19.23;92.66;100559.97;695355;28;1015;-41
2022/08/26 01:14:12;;;;;;;8.07;6.88;;;;;;;19.21;92.32;100556.53;692516;28;1071;-41
2022/08/26 01:14:34;;;;;;;8.77;6.85;;;;;;;19.26;91.61;100559.84;693652;28;1068;-41
2022/08/26 01:14:55;;;;;;;8.40;6.47;;;;;;;19.28;91.55;100557.13;694369;28;1123;-39
2022/08/26 01:15:20;;;;;;;9.07;7.05;;;;;;;19.27;91.92;100566.84;695423;28;1316;-43
2022/08/26 01:15:50;;;;;;;10.45;7.40;;;;;;;19.21;93.14;100567.13;694715;28;1107;-40
2022/08/26 01:16:14;;;;;;;9.45;7.80;;;;;;;19.19;93.77;100564.56;694552;28;4751;-40
2022/08/26 01:16:35;;;;;;;9.65;7.63;;;;;;;19.16;93.96;100566.47;694160;28;1109;-41
2022/08/26 01:16:56;;;;;;;8.60;7.38;;;;;;;19.14;93.76;100565.66;692816;28;1257;-42
2022/08/26 01:17:17;;;;;;;7.90;7.10;;;;;;;19.15;92.29;100562.97;694862;28;1741;-40
2022/08/26 01:17:39;;;;;;;7.70;6.90;;;;;;;19.18;92.40;100568.13;693240;28;1135;-41
2022/08/26 01:18:04;;;;;;;7.70;6.90;;;;;;;19.16;93.48;100563.81;693483;28;1992;-42
2022/08/26 01:18:25;;;;;;;7.85;7.05;;;;;;;19.14;94.08;100570.97;695187;28;1058;-42
2022/08/26 01:18:46;;;;;;;8.15;7.25;;;;;;;19.11;94.64;100571.09;693221;28;1135;-41
2022/08/26 01:19:17;;;;;;;8.20;7.28;;;;;;;19.09;94.93;100567.66;693587;28;5031;-41
2022/08/26 01:19:45;;;;;;;8.80;7.20;;;;;;;19.10;93.31;100564.94;695407;28;1145;-40
2022/08/26 01:20:26;;;;;;;7.60;6.80;;;;;;;19.13;94.47;100563.94;694987;28;1100;-43
2022/08/26 01:20:46;;;;;;;8.48;7.55;;;;;;;19.14;94.88;100566.53;693599;28;1087;-40
2022/08/26 01:21:28;;;;;;;8.80;7.23;;;;;;;19.10;94.19;100564.06;693750;28;1394;-40
2022/08/26 01:21:58;;;;;;;9.07;7.25;;;;;;;19.09;93.91;100565.00;693570;28;4508;-40
2022/08/26 01:22:37;;;;;;;8.55;7.00;;;;;;;19.04;95.26;100566.03;694391;28;1013;-41
2022/08/26 01:23:05;;;;;;;9.35;7.72;;;;;;;18.97;95.90;100561.06;694553;28;1091;-42
2022/08/26 01:23:32;;;;;;;8.88;7.57;;;;;;;19.01;93.79;100566.19;694323;28;1253;-41
2022/08/26 01:23:54;;;;;;;8.73;7.50;;;;;;;19.04;94.70;100566.03;691492;28;1055;-41
2022/08/26 01:24:17;;;;;;;8.05;7.25;;;;;;;19.00;95.68;100561.81;694072;28;1115;-40
2022/08/26 01:24:39;;;;;;;8.07;7.10;;;;;;;19.01;95.00;100562.66;694486;28;1080;-41
2022/08/26 01:25:00;;;;;;;8.60;7.40;;;;;;;19.05;94.50;100570.44;692011;28;4757;-40
2022/08/26 01:25:23;;;;;;;8.30;7.43;;;;;;;19.09;94.19;100567.66;695432;28;1096;-41
2022/08/26 01:25:53;;;;;;;9.70;8.18;;;;;;;19.09;95.40;100562.34;696106;28;1479;-41
2022/08/26 01:26:39;;;;;;;10.40;8.48;;;;;;;19.04;94.28;100567.84;698507;28;1150;-40
2022/08/26 01:27:07;;;;;;;9.93;8.52;;;;;;;19.03;94.54;100572.25;692388;28;1754;-42
2022/08/26 01:27:30;;;;;;;9.70;8.80;;;;;;;19.02;95.33;100561.72;694222;28;980;-41
2022/08/26 01:27:54;;;;;;;9.80;8.77;;;;;;;18.96;96.66;100568.16;692096;28;4743;-40
2022/08/26 01:28:21;;;;;;;10.73;9.57;;;;;;;18.96;97.10;100569.94;694785;28;1008;-42
2022/08/26 01:28:42;;;;;;;13.20;11.38;;;;;;;18.98;97.37;100570.72;696839;28;1098;-40
2022/08/26 01:29:04;;;;;;;11.13;9.95;;;;;;;18.96;97.42;100564.66;695862;28;1130;-42
2022/08/26 01:29:25;;;;;;;10.10;8.88;;;;;;;18.96;97.14;100568.16;697421;28;1089;-41
2022/08/26 01:29:48;;;;;;;9.60;8.60;;;;;;;18.98;95.69;100563.66;696527;28;1063;-40
2022/08/26 01:30:10;;;;;;;9.07;8.18;;;;;;;19.01;95.20;100568.84;697011;28;1288;-43
2022/08/26 01:30:33;;;;;;;9.45;8.45;;;;;;;19.04;95.31;100571.34;694180;28;1071;-41
2022/08/26 01:30:55;;;;;;;10.13;9.10;;;;;;;19.05;95.35;100567.78;693815;28;4440;-44
2022/08/26 01:31:19;;;;;;;11.52;9.55;;;;;;;19.04;96.48;100565.19;694563;28;1027;-40
2022/08/26 01:31:54;;;;;;;11.70;9.63;;;;;;;19.01;96.00;100574.13;693923;28;1214;-40
2022/08/26 01:32:18;;;;;;;11.50;10.02;;;;;;;19.03;96.08;100577.56;695079;28;936;-40
2022/08/26 01:32:39;;;;;;;13.10;10.45;;;;;;;19.03;96.83;100574.06;691538;28;907;-40
2022/08/26 01:33:04;;;;;;;12.52;10.05;;;;;;;19.00;97.17;100569.75;688467;28;1028;-40
2022/08/26 01:33:30;;;;;;;12.38;11.07;;;;;;;18.97;97.29;100572.53;689223;28;1223;-42
2022/08/26 01:33:57;;;;;;;11.73;10.40;;;;;;;18.99;96.99;100573.31;687418;28;4424;-42
2022/08/26 01:34:24;;;;;;;12.88;10.13;;;;;;;18.98;97.76;100573.38;690302;28;1198;-41
2022/08/26 01:34:46;;;;;;;11.38;10.25;;;;;;;19.02;95.84;100573.22;695515;28;1127;-40
2022/08/26 01:35:07;;;;;;;10.85;9.75;;;;;;;19.04;96.95;100565.19;694580;28;1160;-44
2022/08/26 01:35:29;;;;;;;11.90;10.60;;;;;;;19.02;97.47;100569.69;696607;28;1211;-40
2022/08/26 01:35:49;;;;;;;12.25;10.95;;;;;;;19.05;95.33;100578.38;697399;28;1062;-40
2022/08/26 01:36:10;;;;;;;10.93;9.83;;;;;;;19.07;96.02;100573.00;695806;28;1084;-43
2022/08/26 01:36:31;;;;;;;10.30;9.30;;;;;;;19.05;97.21;100573.06;696291;28;1055;-41
2022/08/26 01:36:57;;;;;;;10.53;9.53;;;;;;;19.02;97.69;100570.56;692398;28;4266;-40
2022/08/26 01:37:24;;;;;;;10.95;9.75;;;;;;;19.04;97.52;100571.34;693267;28;1197;-41
2022/08/26 01:37:48;;;;;;;10.48;9.40;;;;;;;19.07;95.96;100569.50;693502;28;1128;-40
2022/08/26 01:38:10;;;;;;;10.60;9.20;;;;;;;19.07;96.00;100573.00;695100;28;1914;-41
2022/08/26 01:38:31;;;;;;;11.77;9.07;;;;;;;19.06;95.65;100571.28;694766;28;1263;-42
2022/08/26 01:38:51;;;;;;;10.80;9.00;;;;;;;19.08;95.57;100571.22;694973;28;5109;-41
2022/08/26 01:39:12;;;;;;;10.93;9.40;;;;;;;19.08;95.29;100569.44;693934;28;1002;-40
2022/08/26 01:39:34;;;;;;;11.40;9.40;;;;;;;19.05;96.81;100575.72;692185;28;1257;-44
2022/08/26 01:39:55;;;;;;;11.15;10.05;;;;;;;19.03;97.54;100574.91;691408;28;4417;-40
2022/08/26 01:40:22;;;;;;;11.65;10.45;;;;;;;19.02;95.71;100574.97;690209;28;1081;-40
2022/08/26 01:40:44;;;;;;;10.80;9.43;;;;;;;19.05;96.24;100572.19;691481;28;1188;-40
2022/08/26 01:41:06;;;;;;;10.32;9.32;;;;;;;19.03;97.48;100574.91;691507;28;1136;-41
2022/08/26 01:41:27;;;;;;;11.43;9.10;;;;;;;19.00;97.21;100580.34;693073;28;916;-43
2022/08/26 01:41:51;;;;;;;11.55;9.38;;;;;;;19.03;96.11;100574.06;695027;28;1087;-41
2022/08/26 01:42:14;;;;;;;11.25;9.80;;;;;;;19.01;97.81;100574.13;695304;28;992;-39
2022/08/26 01:42:34;;;;;;;12.48;11.18;;;;;;;18.99;98.48;100575.97;691891;28;1858;-41
2022/08/26 01:42:55;;;;;;;13.13;11.83;;;;;;;19.02;96.29;100573.22;691364;28;4311;-40
2022/08/26 01:43:21;;;;;;;12.30;11.00;;;;;;;19.05;96.33;100570.44;692506;28;1384;-44
2022/08/26 01:43:45;;;;;;;13.63;10.80;;;;;;;19.05;96.92;100573.06;694818;28;1060;-40
2022/08/26 01:44:08;;;;;;;12.63;11.25;;;;;;;19.04;97.54;100581.09;691975;28;1822;-40
2022/08/26 01:44:35;;;;;;;11.70;10.27;;;;;;;19.02;98.11;100577.63;693333;28;1119;-41
2022/08/26 01:45:05;;;;;;;11.40;10.23;;;;;;;19.00;97.01;100580.34;693481;28;1040;-41
2022/08/26 01:45:31;;;;;;;11.82;10.60;;;;;;;19.04;96.36;100574.00;691563;28;1192;-40
2022/08/26 01:45:55;;;;;;;12.60;11.30;;;;;;;19.05;96.65;100582.78;691581;28;4470;-39
2022/08/26 01:46:17;;;;;;;13.02;11.60;;;;;;;19.04;97.34;100576.66;694059;28;990;-41
2022/08/26 01:46:39;;;;;;;12.60;11.25;;;;;;;19.08;96.14;100581.81;694020;28;1103;-41
2022/08/26 01:47:00;;;;;;;13.43;11.05;;;;;;;19.11;96.45;100582.56;694495;28;1233;-41
2022/08/26 01:47:24;;;;;;;12.88;11.50;;;;;;;19.11;96.54;100574.59;693762;28;1025;-40
2022/08/26 01:47:47;;;;;;;13.02;11.73;;;;;;;19.12;97.27;100584.28;694990;28;985;-40
2022/08/26 01:48:13;;;;;;;14.57;13.00;;;;;;;19.11;97.04;100579.06;694218;28;1305;-41